sensor_id;sensor_type;location;lat;lon;timestamp;temperature;humidity
22633;DHT22;11483;55.828;37.488;2023-07-28T00:02:09;22.60;99.90
22633;DHT22;11483;55.828;37.488;2023-07-28T00:04:36;22.50;99.90
22633;DHT22;11483;55.828;37.488;2023-07-28T00:07:05;22.60;99.90
22633;DHT22;11483;55.828;37.488;2023-07-28T00:09:31;22.60;99.90
22633;DHT22;11483;55.828;37.488;2023-07-28T00:11:58;22.70;99.90
22633;DHT22;11483;55.828;37.488;2023-07-28T00:14:25;22.70;99.90
22633;DHT22;11483;55.828;37.488;2023-07-28T00:16:52;22.70;99.90
22633;DHT22;11483;55.828;37.488;2023-07-28T00:19:19;22.70;99.90
22633;DHT22;11483;55.828;37.488;2023-07-28T00:21:50;22.70;99.90
22633;DHT22;11483;55.828;37.488;2023-07-28T00:24:18;22.60;99.90
22633;DHT22;11483;55.828;37.488;2023-07-28T00:26:44;22.60;99.90
22633;DHT22;11483;55.828;37.488;2023-07-28T00:29:10;22.50;99.90
22633;DHT22;11483;55.828;37.488;2023-07-28T00:31:36;22.50;99.90
22633;DHT22;11483;55.828;37.488;2023-07-28T00:34:02;22.40;99.90
22633;DHT22;11483;55.828;37.488;2023-07-28T00:36:29;22.40;99.90
22633;DHT22;11483;55.828;37.488;2023-07-28T00:38:55;22.40;99.90
22633;DHT22;11483;55.828;37.488;2023-07-28T00:41:21;22.40;99.90
22633;DHT22;11483;55.828;37.488;2023-07-28T00:43:46;22.30;99.90
22633;DHT22;11483;55.828;37.488;2023-07-28T00:46:13;22.30;99.90
22633;DHT22;11483;55.828;37.488;2023-07-28T00:48:39;22.30;99.90
22633;DHT22;11483;55.828;37.488;2023-07-28T00:51:07;22.30;99.90
22633;DHT22;11483;55.828;37.488;2023-07-28T00:53:33;22.30;99.90
22633;DHT22;11483;55.828;37.488;2023-07-28T00:56:00;22.30;99.90
22633;DHT22;11483;55.828;37.488;2023-07-28T00:58:27;22.30;99.90
22633;DHT22;11483;55.828;37.488;2023-07-28T01:00:53;22.20;99.90
22633;DHT22;11483;55.828;37.488;2023-07-28T01:03:20;22.20;99.90
22633;DHT22;11483;55.828;37.488;2023-07-28T01:06:15;22.20;99.90
22633;DHT22;11483;55.828;37.488;2023-07-28T01:11:26;22.20;99.90
22633;DHT22;11483;55.828;37.488;2023-07-28T01:13:52;22.20;99.90
22633;DHT22;11483;55.828;37.488;2023-07-28T01:16:18;22.20;99.90
22633;DHT22;11483;55.828;37.488;2023-07-28T01:18:44;22.20;99.90
22633;DHT22;11483;55.828;37.488;2023-07-28T01:21:17;22.20;99.90
22633;DHT22;11483;55.828;37.488;2023-07-28T01:26:42;22.20;99.90
22633;DHT22;11483;55.828;37.488;2023-07-28T01:29:09;22.10;99.90
22633;DHT22;11483;55.828;37.488;2023-07-28T01:31:37;22.10;99.90
22633;DHT22;11483;55.828;37.488;2023-07-28T01:34:04;22.10;99.90
22633;DHT22;11483;55.828;37.488;2023-07-28T01:36:30;22.20;99.90
22633;DHT22;11483;55.828;37.488;2023-07-28T01:38:56;22.20;99.90
22633;DHT22;11483;55.828;37.488;2023-07-28T01:41:22;22.20;99.90
22633;DHT22;11483;55.828;37.488;2023-07-28T01:43:47;22.20;99.90
22633;DHT22;11483;55.828;37.488;2023-07-28T01:46:13;22.20;99.90
22633;DHT22;11483;55.828;37.488;2023-07-28T01:48:39;22.20;99.90
22633;DHT22;11483;55.828;37.488;2023-07-28T01:51:05;22.20;99.90
22633;DHT22;11483;55.828;37.488;2023-07-28T01:53:31;22.20;99.90
22633;DHT22;11483;55.828;37.488;2023-07-28T01:55:57;22.20;99.90
22633;DHT22;11483;55.828;37.488;2023-07-28T01:58:22;22.30;99.90
22633;DHT22;11483;55.828;37.488;2023-07-28T02:00:48;22.30;99.90
22633;DHT22;11483;55.828;37.488;2023-07-28T02:03:14;22.20;99.90
22633;DHT22;11483;55.828;37.488;2023-07-28T02:05:40;22.20;99.90
22633;DHT22;11483;55.828;37.488;2023-07-28T02:08:06;22.20;99.90
22633;DHT22;11483;55.828;37.488;2023-07-28T02:10:32;22.20;99.90
22633;DHT22;11483;55.828;37.488;2023-07-28T02:12:58;22.20;99.90
22633;DHT22;11483;55.828;37.488;2023-07-28T02:15:24;22.20;99.90
22633;DHT22;11483;55.828;37.488;2023-07-28T02:17:50;22.20;99.90
22633;DHT22;11483;55.828;37.488;2023-07-28T02:20:22;22.20;99.90
22633;DHT22;11483;55.828;37.488;2023-07-28T02:22:47;22.20;99.90
22633;DHT22;11483;55.828;37.488;2023-07-28T02:25:13;22.10;99.90
22633;DHT22;11483;55.828;37.488;2023-07-28T02:27:39;22.20;99.90
22633;DHT22;11483;55.828;37.488;2023-07-28T02:30:06;22.20;99.90
22633;DHT22;11483;55.828;37.488;2023-07-28T02:32:32;22.20;99.90
22633;DHT22;11483;55.828;37.488;2023-07-28T02:34:58;22.20;99.90
22633;DHT22;11483;55.828;37.488;2023-07-28T02:37:24;22.10;99.90
22633;DHT22;11483;55.828;37.488;2023-07-28T02:39:51;22.20;99.90
22633;DHT22;11483;55.828;37.488;2023-07-28T02:42:16;22.10;99.90
22633;DHT22;11483;55.828;37.488;2023-07-28T02:44:42;22.10;99.90
22633;DHT22;11483;55.828;37.488;2023-07-28T02:47:08;22.10;99.90
22633;DHT22;11483;55.828;37.488;2023-07-28T02:49:34;22.20;99.90
22633;DHT22;11483;55.828;37.488;2023-07-28T02:52:00;22.20;99.90
22633;DHT22;11483;55.828;37.488;2023-07-28T02:54:26;22.20;99.90
22633;DHT22;11483;55.828;37.488;2023-07-28T02:56:52;22.20;99.90
22633;DHT22;11483;55.828;37.488;2023-07-28T02:59:18;22.20;99.90
22633;DHT22;11483;55.828;37.488;2023-07-28T03:01:44;22.20;99.90
22633;DHT22;11483;55.828;37.488;2023-07-28T03:04:09;22.20;99.90
22633;DHT22;11483;55.828;37.488;2023-07-28T03:06:35;22.30;99.90
22633;DHT22;11483;55.828;37.488;2023-07-28T03:09:01;22.40;99.90
22633;DHT22;11483;55.828;37.488;2023-07-28T03:11:27;22.40;99.90
22633;DHT22;11483;55.828;37.488;2023-07-28T03:13:53;22.40;99.90
22633;DHT22;11483;55.828;37.488;2023-07-28T03:16:19;22.50;99.90
22633;DHT22;11483;55.828;37.488;2023-07-28T03:18:45;22.60;99.90
22633;DHT22;11483;55.828;37.488;2023-07-28T03:21:11;22.70;99.90
22633;DHT22;11483;55.828;37.488;2023-07-28T03:23:37;22.80;99.90
22633;DHT22;11483;55.828;37.488;2023-07-28T03:26:03;22.80;99.90
22633;DHT22;11483;55.828;37.488;2023-07-28T03:28:29;22.80;99.90
22633;DHT22;11483;55.828;37.488;2023-07-28T03:30:54;22.80;99.90
22633;DHT22;11483;55.828;37.488;2023-07-28T03:33:20;22.80;99.90
22633;DHT22;11483;55.828;37.488;2023-07-28T03:35:46;22.80;99.90
22633;DHT22;11483;55.828;37.488;2023-07-28T03:38:12;22.80;99.90
22633;DHT22;11483;55.828;37.488;2023-07-28T03:40:38;22.80;99.90
22633;DHT22;11483;55.828;37.488;2023-07-28T03:43:04;22.80;99.90
22633;DHT22;11483;55.828;37.488;2023-07-28T03:45:30;22.80;99.90
22633;DHT22;11483;55.828;37.488;2023-07-28T03:47:56;22.80;99.90
22633;DHT22;11483;55.828;37.488;2023-07-28T03:50:21;22.70;99.90
22633;DHT22;11483;55.828;37.488;2023-07-28T03:52:50;22.70;99.90
22633;DHT22;11483;55.828;37.488;2023-07-28T03:55:15;22.50;99.90
22633;DHT22;11483;55.828;37.488;2023-07-28T03:57:41;22.40;99.90
22633;DHT22;11483;55.828;37.488;2023-07-28T04:00:07;22.30;99.90
22633;DHT22;11483;55.828;37.488;2023-07-28T04:02:33;22.20;99.90
22633;DHT22;11483;55.828;37.488;2023-07-28T04:04:59;21.90;99.90
22633;DHT22;11483;55.828;37.488;2023-07-28T04:07:25;21.60;99.90
22633;DHT22;11483;55.828;37.488;2023-07-28T04:09:50;21.40;99.90
22633;DHT22;11483;55.828;37.488;2023-07-28T04:12:16;21.20;99.90
22633;DHT22;11483;55.828;37.488;2023-07-28T04:14:42;21.10;99.90
22633;DHT22;11483;55.828;37.488;2023-07-28T04:17:07;20.90;99.90
22633;DHT22;11483;55.828;37.488;2023-07-28T04:19:33;20.90;99.90
22633;DHT22;11483;55.828;37.488;2023-07-28T04:22:00;20.80;99.90
22633;DHT22;11483;55.828;37.488;2023-07-28T04:24:26;20.80;99.90
22633;DHT22;11483;55.828;37.488;2023-07-28T04:26:52;20.80;99.90
22633;DHT22;11483;55.828;37.488;2023-07-28T04:29:17;20.80;99.90
22633;DHT22;11483;55.828;37.488;2023-07-28T04:31:43;20.90;99.90
22633;DHT22;11483;55.828;37.488;2023-07-28T04:34:09;20.90;99.90
22633;DHT22;11483;55.828;37.488;2023-07-28T04:36:34;21.00;99.90
22633;DHT22;11483;55.828;37.488;2023-07-28T04:39:00;21.00;99.90
22633;DHT22;11483;55.828;37.488;2023-07-28T04:41:26;21.00;99.90
22633;DHT22;11483;55.828;37.488;2023-07-28T04:43:52;21.10;99.90
22633;DHT22;11483;55.828;37.488;2023-07-28T04:46:17;21.10;99.90
22633;DHT22;11483;55.828;37.488;2023-07-28T04:48:43;21.20;99.90
22633;DHT22;11483;55.828;37.488;2023-07-28T04:51:09;21.20;99.90
22633;DHT22;11483;55.828;37.488;2023-07-28T04:53:34;21.30;99.90
22633;DHT22;11483;55.828;37.488;2023-07-28T04:56:00;21.40;99.90
22633;DHT22;11483;55.828;37.488;2023-07-28T04:58:26;21.50;99.90
22633;DHT22;11483;55.828;37.488;2023-07-28T05:00:51;21.60;99.90
22633;DHT22;11483;55.828;37.488;2023-07-28T05:03:17;21.70;99.90
22633;DHT22;11483;55.828;37.488;2023-07-28T05:05:43;21.80;99.90
22633;DHT22;11483;55.828;37.488;2023-07-28T05:08:09;22.00;99.90
22633;DHT22;11483;55.828;37.488;2023-07-28T05:10:35;22.30;99.90
22633;DHT22;11483;55.828;37.488;2023-07-28T05:13:01;22.50;99.90
22633;DHT22;11483;55.828;37.488;2023-07-28T05:15:29;22.60;99.90
22633;DHT22;11483;55.828;37.488;2023-07-28T05:17:55;22.80;99.90
22633;DHT22;11483;55.828;37.488;2023-07-28T05:20:21;23.00;99.90
22633;DHT22;11483;55.828;37.488;2023-07-28T05:22:47;23.10;99.90
22633;DHT22;11483;55.828;37.488;2023-07-28T05:25:12;23.20;99.90
22633;DHT22;11483;55.828;37.488;2023-07-28T05:27:38;23.20;99.90
22633;DHT22;11483;55.828;37.488;2023-07-28T05:30:04;23.20;99.90
22633;DHT22;11483;55.828;37.488;2023-07-28T05:32:30;23.10;99.90
22633;DHT22;11483;55.828;37.488;2023-07-28T05:34:56;23.20;99.90
22633;DHT22;11483;55.828;37.488;2023-07-28T05:37:22;23.20;99.90
22633;DHT22;11483;55.828;37.488;2023-07-28T05:39:47;23.20;99.90
22633;DHT22;11483;55.828;37.488;2023-07-28T05:42:13;23.40;99.90
22633;DHT22;11483;55.828;37.488;2023-07-28T05:44:39;23.40;99.90
22633;DHT22;11483;55.828;37.488;2023-07-28T05:47:05;23.60;99.90
22633;DHT22;11483;55.828;37.488;2023-07-28T05:49:31;23.70;99.90
22633;DHT22;11483;55.828;37.488;2023-07-28T05:51:57;23.80;99.90
22633;DHT22;11483;55.828;37.488;2023-07-28T05:54:23;23.90;99.90
22633;DHT22;11483;55.828;37.488;2023-07-28T05:56:48;24.00;99.90
22633;DHT22;11483;55.828;37.488;2023-07-28T05:59:15;24.00;99.90
22633;DHT22;11483;55.828;37.488;2023-07-28T06:01:41;23.90;99.90
22633;DHT22;11483;55.828;37.488;2023-07-28T06:04:06;23.80;99.90
22633;DHT22;11483;55.828;37.488;2023-07-28T06:06:32;23.70;99.90
22633;DHT22;11483;55.828;37.488;2023-07-28T06:08:58;23.70;99.90
22633;DHT22;11483;55.828;37.488;2023-07-28T06:11:23;23.70;99.90
22633;DHT22;11483;55.828;37.488;2023-07-28T06:13:49;23.60;99.90
22633;DHT22;11483;55.828;37.488;2023-07-28T06:16:15;23.60;99.90
22633;DHT22;11483;55.828;37.488;2023-07-28T06:18:41;23.50;99.90
22633;DHT22;11483;55.828;37.488;2023-07-28T06:21:07;23.40;99.90
22633;DHT22;11483;55.828;37.488;2023-07-28T06:23:33;23.30;99.90
22633;DHT22;11483;55.828;37.488;2023-07-28T06:25:59;23.30;99.90
22633;DHT22;11483;55.828;37.488;2023-07-28T06:28:24;23.30;99.90
22633;DHT22;11483;55.828;37.488;2023-07-28T06:30:54;23.40;99.90
22633;DHT22;11483;55.828;37.488;2023-07-28T06:33:21;23.60;99.90
22633;DHT22;11483;55.828;37.488;2023-07-28T06:35:46;23.80;99.90
22633;DHT22;11483;55.828;37.488;2023-07-28T06:38:12;23.90;99.90
22633;DHT22;11483;55.828;37.488;2023-07-28T06:40:38;23.80;99.90
22633;DHT22;11483;55.828;37.488;2023-07-28T06:43:04;23.60;99.90
22633;DHT22;11483;55.828;37.488;2023-07-28T06:45:29;23.40;99.90
22633;DHT22;11483;55.828;37.488;2023-07-28T06:47:55;23.00;99.90
22633;DHT22;11483;55.828;37.488;2023-07-28T06:50:21;22.60;99.90
22633;DHT22;11483;55.828;37.488;2023-07-28T06:52:46;22.30;99.90
22633;DHT22;11483;55.828;37.488;2023-07-28T06:55:16;22.00;99.90
22633;DHT22;11483;55.828;37.488;2023-07-28T06:57:42;21.80;99.90
22633;DHT22;11483;55.828;37.488;2023-07-28T07:00:08;21.50;99.90
22633;DHT22;11483;55.828;37.488;2023-07-28T07:02:35;21.30;99.90
22633;DHT22;11483;55.828;37.488;2023-07-28T07:05:01;21.10;99.90
22633;DHT22;11483;55.828;37.488;2023-07-28T07:07:27;21.00;99.90
22633;DHT22;11483;55.828;37.488;2023-07-28T07:09:53;20.90;99.90
22633;DHT22;11483;55.828;37.488;2023-07-28T07:12:18;20.70;99.90
22633;DHT22;11483;55.828;37.488;2023-07-28T07:14:46;20.60;99.90
22633;DHT22;11483;55.828;37.488;2023-07-28T07:17:12;20.60;99.90
22633;DHT22;11483;55.828;37.488;2023-07-28T07:19:38;20.50;99.90
22633;DHT22;11483;55.828;37.488;2023-07-28T07:22:04;20.50;99.90
22633;DHT22;11483;55.828;37.488;2023-07-28T07:24:30;20.50;99.90
22633;DHT22;11483;55.828;37.488;2023-07-28T07:26:56;20.60;99.90
22633;DHT22;11483;55.828;37.488;2023-07-28T07:29:21;20.70;99.90
22633;DHT22;11483;55.828;37.488;2023-07-28T07:31:47;20.80;99.90
22633;DHT22;11483;55.828;37.488;2023-07-28T07:34:14;20.90;99.90
22633;DHT22;11483;55.828;37.488;2023-07-28T07:36:39;20.90;99.90
22633;DHT22;11483;55.828;37.488;2023-07-28T07:39:05;20.90;99.90
22633;DHT22;11483;55.828;37.488;2023-07-28T07:41:31;21.00;99.90
22633;DHT22;11483;55.828;37.488;2023-07-28T07:43:56;21.10;99.90
22633;DHT22;11483;55.828;37.488;2023-07-28T07:46:22;21.20;99.90
22633;DHT22;11483;55.828;37.488;2023-07-28T07:48:49;21.30;99.90
22633;DHT22;11483;55.828;37.488;2023-07-28T07:51:15;21.40;99.90
22633;DHT22;11483;55.828;37.488;2023-07-28T07:53:40;21.40;99.90
22633;DHT22;11483;55.828;37.488;2023-07-28T07:56:06;21.40;99.90
22633;DHT22;11483;55.828;37.488;2023-07-28T07:58:33;21.30;99.90
22633;DHT22;11483;55.828;37.488;2023-07-28T08:00:59;21.40;99.90
22633;DHT22;11483;55.828;37.488;2023-07-28T08:03:25;21.50;99.90
22633;DHT22;11483;55.828;37.488;2023-07-28T08:05:51;21.50;99.90
22633;DHT22;11483;55.828;37.488;2023-07-28T08:08:17;21.60;99.90
22633;DHT22;11483;55.828;37.488;2023-07-28T08:10:48;21.60;99.90
22633;DHT22;11483;55.828;37.488;2023-07-28T08:13:14;21.80;99.90
22633;DHT22;11483;55.828;37.488;2023-07-28T08:15:40;21.90;99.90
22633;DHT22;11483;55.828;37.488;2023-07-28T08:18:07;22.20;99.90
22633;DHT22;11483;55.828;37.488;2023-07-28T08:20:32;22.60;99.90
22633;DHT22;11483;55.828;37.488;2023-07-28T08:22:58;23.10;99.90
22633;DHT22;11483;55.828;37.488;2023-07-28T08:25:23;23.80;99.90
22633;DHT22;11483;55.828;37.488;2023-07-28T08:27:49;24.40;99.90
22633;DHT22;11483;55.828;37.488;2023-07-28T08:30:15;24.80;99.90
22633;DHT22;11483;55.828;37.488;2023-07-28T08:32:43;25.20;99.90
22633;DHT22;11483;55.828;37.488;2023-07-28T08:35:09;25.70;99.90
22633;DHT22;11483;55.828;37.488;2023-07-28T08:37:35;25.90;99.90
22633;DHT22;11483;55.828;37.488;2023-07-28T08:40:01;25.80;99.90
22633;DHT22;11483;55.828;37.488;2023-07-28T08:42:30;25.70;99.90
22633;DHT22;11483;55.828;37.488;2023-07-28T08:44:56;25.30;99.90
22633;DHT22;11483;55.828;37.488;2023-07-28T08:47:22;24.80;99.90
22633;DHT22;11483;55.828;37.488;2023-07-28T08:49:48;24.40;99.90
22633;DHT22;11483;55.828;37.488;2023-07-28T08:52:17;24.30;99.90
22633;DHT22;11483;55.828;37.488;2023-07-28T08:54:43;24.30;99.90
22633;DHT22;11483;55.828;37.488;2023-07-28T08:57:09;24.40;99.90
22633;DHT22;11483;55.828;37.488;2023-07-28T08:59:34;24.50;99.90
22633;DHT22;11483;55.828;37.488;2023-07-28T09:02:01;24.50;99.90
22633;DHT22;11483;55.828;37.488;2023-07-28T09:04:27;24.40;99.90
22633;DHT22;11483;55.828;37.488;2023-07-28T09:06:53;24.40;99.90
22633;DHT22;11483;55.828;37.488;2023-07-28T09:09:20;24.40;99.90
22633;DHT22;11483;55.828;37.488;2023-07-28T09:11:48;24.50;99.90
22633;DHT22;11483;55.828;37.488;2023-07-28T09:14:15;24.80;99.90
22633;DHT22;11483;55.828;37.488;2023-07-28T09:16:44;25.40;99.90
22633;DHT22;11483;55.828;37.488;2023-07-28T09:19:10;25.90;99.90
22633;DHT22;11483;55.828;37.488;2023-07-28T09:21:40;26.50;99.90
22633;DHT22;11483;55.828;37.488;2023-07-28T09:24:08;26.80;99.90
22633;DHT22;11483;55.828;37.488;2023-07-28T09:26:44;26.40;99.90
22633;DHT22;11483;55.828;37.488;2023-07-28T09:29:14;25.80;99.90
22633;DHT22;11483;55.828;37.488;2023-07-28T09:31:40;25.30;99.90
22633;DHT22;11483;55.828;37.488;2023-07-28T09:34:06;25.00;99.90
22633;DHT22;11483;55.828;37.488;2023-07-28T09:36:34;24.80;99.90
22633;DHT22;11483;55.828;37.488;2023-07-28T09:38:59;24.50;99.90
22633;DHT22;11483;55.828;37.488;2023-07-28T09:41:27;24.20;99.90
22633;DHT22;11483;55.828;37.488;2023-07-28T09:43:54;23.90;99.90
22633;DHT22;11483;55.828;37.488;2023-07-28T09:46:20;23.60;99.90
22633;DHT22;11483;55.828;37.488;2023-07-28T09:48:46;23.40;99.90
22633;DHT22;11483;55.828;37.488;2023-07-28T09:51:19;23.30;99.90
22633;DHT22;11483;55.828;37.488;2023-07-28T09:53:47;23.20;99.90
22633;DHT22;11483;55.828;37.488;2023-07-28T09:56:16;23.10;99.90
22633;DHT22;11483;55.828;37.488;2023-07-28T09:58:47;23.10;99.90
22633;DHT22;11483;55.828;37.488;2023-07-28T10:01:14;23.10;99.90
22633;DHT22;11483;55.828;37.488;2023-07-28T10:03:40;23.20;99.90
22633;DHT22;11483;55.828;37.488;2023-07-28T10:06:05;23.30;99.90
22633;DHT22;11483;55.828;37.488;2023-07-28T10:08:32;23.40;99.90
22633;DHT22;11483;55.828;37.488;2023-07-28T10:10:57;23.40;99.90
22633;DHT22;11483;55.828;37.488;2023-07-28T10:13:23;23.50;99.90
22633;DHT22;11483;55.828;37.488;2023-07-28T10:15:50;23.50;99.90
22633;DHT22;11483;55.828;37.488;2023-07-28T10:18:19;23.40;99.90
22633;DHT22;11483;55.828;37.488;2023-07-28T10:20:44;23.50;99.90
22633;DHT22;11483;55.828;37.488;2023-07-28T10:23:21;23.40;99.90
22633;DHT22;11483;55.828;37.488;2023-07-28T10:25:47;23.40;99.90
22633;DHT22;11483;55.828;37.488;2023-07-28T10:31:15;23.10;99.90
22633;DHT22;11483;55.828;37.488;2023-07-28T10:33:54;23.10;99.90
22633;DHT22;11483;55.828;37.488;2023-07-28T10:38:47;23.20;99.90
22633;DHT22;11483;55.828;37.488;2023-07-28T10:41:24;23.20;99.90
22633;DHT22;11483;55.828;37.488;2023-07-28T10:43:51;23.30;99.90
22633;DHT22;11483;55.828;37.488;2023-07-28T10:46:17;23.40;99.90
22633;DHT22;11483;55.828;37.488;2023-07-28T10:48:44;23.50;99.90
22633;DHT22;11483;55.828;37.488;2023-07-28T10:51:10;23.50;99.90
22633;DHT22;11483;55.828;37.488;2023-07-28T10:53:37;23.50;99.90
22633;DHT22;11483;55.828;37.488;2023-07-28T10:56:03;23.40;99.90
22633;DHT22;11483;55.828;37.488;2023-07-28T10:58:30;23.50;99.90
22633;DHT22;11483;55.828;37.488;2023-07-28T11:00:56;23.60;99.90
22633;DHT22;11483;55.828;37.488;2023-07-28T11:03:22;23.50;99.90
22633;DHT22;11483;55.828;37.488;2023-07-28T11:05:48;23.50;99.90
22633;DHT22;11483;55.828;37.488;2023-07-28T11:08:15;23.40;99.90
22633;DHT22;11483;55.828;37.488;2023-07-28T11:10:40;23.30;99.90
22633;DHT22;11483;55.828;37.488;2023-07-28T11:13:06;23.30;99.90
22633;DHT22;11483;55.828;37.488;2023-07-28T11:15:32;23.40;99.90
22633;DHT22;11483;55.828;37.488;2023-07-28T11:17:59;23.50;99.90
22633;DHT22;11483;55.828;37.488;2023-07-28T11:20:25;23.60;99.90
22633;DHT22;11483;55.828;37.488;2023-07-28T11:22:56;23.50;99.90
22633;DHT22;11483;55.828;37.488;2023-07-28T11:25:22;23.50;99.90
22633;DHT22;11483;55.828;37.488;2023-07-28T11:27:48;23.40;99.90
22633;DHT22;11483;55.828;37.488;2023-07-28T11:30:15;23.40;99.90
22633;DHT22;11483;55.828;37.488;2023-07-28T11:32:45;23.40;99.90
22633;DHT22;11483;55.828;37.488;2023-07-28T11:35:11;23.40;99.90
22633;DHT22;11483;55.828;37.488;2023-07-28T11:37:41;23.40;99.90
22633;DHT22;11483;55.828;37.488;2023-07-28T11:40:08;23.50;99.90
22633;DHT22;11483;55.828;37.488;2023-07-28T11:42:37;23.60;99.90
22633;DHT22;11483;55.828;37.488;2023-07-28T11:45:03;23.60;99.90
22633;DHT22;11483;55.828;37.488;2023-07-28T11:47:29;23.60;99.90
22633;DHT22;11483;55.828;37.488;2023-07-28T11:49:55;23.70;99.90
22633;DHT22;11483;55.828;37.488;2023-07-28T11:52:32;23.80;99.90
22633;DHT22;11483;55.828;37.488;2023-07-28T11:55:02;23.80;99.90
22633;DHT22;11483;55.828;37.488;2023-07-28T11:57:30;23.70;99.90
22633;DHT22;11483;55.828;37.488;2023-07-28T11:59:58;23.80;99.90
22633;DHT22;11483;55.828;37.488;2023-07-28T12:02:25;23.90;99.90
22633;DHT22;11483;55.828;37.488;2023-07-28T12:04:52;24.00;99.90
22633;DHT22;11483;55.828;37.488;2023-07-28T12:07:20;23.90;99.90
22633;DHT22;11483;55.828;37.488;2023-07-28T12:09:52;23.70;99.90
22633;DHT22;11483;55.828;37.488;2023-07-28T12:12:19;23.20;99.90
22633;DHT22;11483;55.828;37.488;2023-07-28T12:14:45;22.80;99.90
22633;DHT22;11483;55.828;37.488;2023-07-28T12:19:42;22.30;99.90
22633;DHT22;11483;55.828;37.488;2023-07-28T12:22:08;22.10;99.90
22633;DHT22;11483;55.828;37.488;2023-07-28T12:24:34;22.00;99.90
22633;DHT22;11483;55.828;37.488;2023-07-28T12:27:00;21.90;99.90
22633;DHT22;11483;55.828;37.488;2023-07-28T12:29:25;22.00;99.90
22633;DHT22;11483;55.828;37.488;2023-07-28T12:31:51;22.00;99.90
22633;DHT22;11483;55.828;37.488;2023-07-28T12:34:17;21.90;99.90
22633;DHT22;11483;55.828;37.488;2023-07-28T12:36:43;21.80;99.90
22633;DHT22;11483;55.828;37.488;2023-07-28T12:39:08;21.70;99.90
22633;DHT22;11483;55.828;37.488;2023-07-28T12:41:34;21.70;99.90
22633;DHT22;11483;55.828;37.488;2023-07-28T12:44:00;21.70;99.90
22633;DHT22;11483;55.828;37.488;2023-07-28T12:46:25;21.60;99.90
22633;DHT22;11483;55.828;37.488;2023-07-28T12:48:52;21.70;99.90
22633;DHT22;11483;55.828;37.488;2023-07-28T12:51:17;21.60;99.90
22633;DHT22;11483;55.828;37.488;2023-07-28T12:53:43;21.70;99.90
22633;DHT22;11483;55.828;37.488;2023-07-28T12:56:09;21.60;99.90
22633;DHT22;11483;55.828;37.488;2023-07-28T12:58:35;21.50;99.90
22633;DHT22;11483;55.828;37.488;2023-07-28T13:01:00;21.40;99.90
22633;DHT22;11483;55.828;37.488;2023-07-28T13:03:28;21.40;99.90
22633;DHT22;11483;55.828;37.488;2023-07-28T13:05:54;21.40;99.90
22633;DHT22;11483;55.828;37.488;2023-07-28T13:08:20;21.30;99.90
22633;DHT22;11483;55.828;37.488;2023-07-28T13:10:45;21.20;99.90
22633;DHT22;11483;55.828;37.488;2023-07-28T13:13:11;21.10;99.90
22633;DHT22;11483;55.828;37.488;2023-07-28T13:15:37;21.00;99.90
22633;DHT22;11483;55.828;37.488;2023-07-28T13:18:02;20.90;99.90
22633;DHT22;11483;55.828;37.488;2023-07-28T13:20:28;20.80;99.90
22633;DHT22;11483;55.828;37.488;2023-07-28T13:22:54;20.70;99.90
22633;DHT22;11483;55.828;37.488;2023-07-28T13:25:19;20.60;99.90
22633;DHT22;11483;55.828;37.488;2023-07-28T13:27:45;20.50;99.90
22633;DHT22;11483;55.828;37.488;2023-07-28T13:30:11;20.50;99.90
22633;DHT22;11483;55.828;37.488;2023-07-28T13:32:37;20.50;99.90
22633;DHT22;11483;55.828;37.488;2023-07-28T13:35:03;20.30;99.90
22633;DHT22;11483;55.828;37.488;2023-07-28T13:37:29;20.20;99.90
22633;DHT22;11483;55.828;37.488;2023-07-28T13:39:54;20.10;99.90
22633;DHT22;11483;55.828;37.488;2023-07-28T13:42:20;20.00;99.90
22633;DHT22;11483;55.828;37.488;2023-07-28T13:44:46;20.00;99.90
22633;DHT22;11483;55.828;37.488;2023-07-28T13:47:11;19.90;99.90
22633;DHT22;11483;55.828;37.488;2023-07-28T13:49:37;19.80;99.90
22633;DHT22;11483;55.828;37.488;2023-07-28T13:52:03;19.70;99.90
22633;DHT22;11483;55.828;37.488;2023-07-28T13:54:29;19.70;99.90
22633;DHT22;11483;55.828;37.488;2023-07-28T13:56:55;19.60;99.90
22633;DHT22;11483;55.828;37.488;2023-07-28T13:59:21;19.70;99.90
22633;DHT22;11483;55.828;37.488;2023-07-28T14:01:48;19.70;99.90
22633;DHT22;11483;55.828;37.488;2023-07-28T14:04:14;19.70;99.90
22633;DHT22;11483;55.828;37.488;2023-07-28T14:06:40;19.70;99.90
22633;DHT22;11483;55.828;37.488;2023-07-28T14:09:06;19.60;99.90
22633;DHT22;11483;55.828;37.488;2023-07-28T14:11:32;19.50;99.90
22633;DHT22;11483;55.828;37.488;2023-07-28T14:13:58;19.60;99.90
22633;DHT22;11483;55.828;37.488;2023-07-28T14:16:24;19.60;99.90
22633;DHT22;11483;55.828;37.488;2023-07-28T14:18:50;19.70;99.90
22633;DHT22;11483;55.828;37.488;2023-07-28T14:21:16;19.80;99.90
22633;DHT22;11483;55.828;37.488;2023-07-28T14:23:42;19.90;99.90
22633;DHT22;11483;55.828;37.488;2023-07-28T14:26:08;20.00;99.90
22633;DHT22;11483;55.828;37.488;2023-07-28T14:28:34;20.20;99.90
22633;DHT22;11483;55.828;37.488;2023-07-28T14:31:00;20.30;99.90
22633;DHT22;11483;55.828;37.488;2023-07-28T14:33:26;20.50;99.90
22633;DHT22;11483;55.828;37.488;2023-07-28T14:35:52;20.50;99.90
22633;DHT22;11483;55.828;37.488;2023-07-28T14:38:19;20.70;99.90
22633;DHT22;11483;55.828;37.488;2023-07-28T14:40:45;20.90;99.90
22633;DHT22;11483;55.828;37.488;2023-07-28T14:43:15;21.10;99.90
22633;DHT22;11483;55.828;37.488;2023-07-28T14:45:42;21.20;99.90
22633;DHT22;11483;55.828;37.488;2023-07-28T14:48:08;21.30;99.90
22633;DHT22;11483;55.828;37.488;2023-07-28T14:50:33;21.50;99.90
22633;DHT22;11483;55.828;37.488;2023-07-28T14:52:59;21.60;99.90
22633;DHT22;11483;55.828;37.488;2023-07-28T14:55:26;21.50;99.90
22633;DHT22;11483;55.828;37.488;2023-07-28T14:57:52;21.40;99.90
22633;DHT22;11483;55.828;37.488;2023-07-28T15:00:18;21.30;99.90
22633;DHT22;11483;55.828;37.488;2023-07-28T15:02:45;21.30;99.90
22633;DHT22;11483;55.828;37.488;2023-07-28T15:05:10;21.30;99.90
22633;DHT22;11483;55.828;37.488;2023-07-28T15:07:37;21.30;99.90
22633;DHT22;11483;55.828;37.488;2023-07-28T15:10:03;21.40;99.90
22633;DHT22;11483;55.828;37.488;2023-07-28T15:12:30;21.50;99.90
22633;DHT22;11483;55.828;37.488;2023-07-28T15:14:56;21.70;99.90
22633;DHT22;11483;55.828;37.488;2023-07-28T15:17:22;21.80;99.90
22633;DHT22;11483;55.828;37.488;2023-07-28T15:19:48;21.80;99.90
22633;DHT22;11483;55.828;37.488;2023-07-28T15:22:13;21.90;99.90
22633;DHT22;11483;55.828;37.488;2023-07-28T15:24:39;21.90;99.90